KTIX METAR and TAF | Updated Today

KTIX METAR

Space Coast Regional Airport

Observation time: 8:10 hr. ago

KTIX 010047Z 09008KT 7SM CLR 25/19 A2981

Need help? Read our tutorial on how to read METARs or read the parsed version below.

Space Coast Regional Airport (KTIX) METAR

  • Weather conditions on Sat, 01 Oct 2022 00:47:00 +0000 (8:10 hr. ago):
  • Present conditions: Dry
  • Clouds: Clear skies
  • Visibility: 11265 meters
  • Wind: 90 degrees at 8 knots
  • Temperature: 25 celsius
  • Dew point: 19 celsius
  • Pressure: 29.81 inHg
  • Remarks: None


Useful to know...

KTIX TAF

Space Coast Regional Airport

KTIX 010528Z 0106/0206 32005KT P6SM SCT025 SCT040 FM011600 VRB05KT P6SM SCT030 FM011900 07008KT P6SM FEW030 FM020000 VRB04KT P6SM SKC AMD NOT SKED TIL 011100
Observation time: 3:29 hr. ago
Need help? Read our tutorial on how to read TAFs or read the parsed version below.

Parsed version of TAF for Space Coast Regional Airport (KTIX)

  • From 01 October at 06:00 UTC, to day 02 of the month at 06:00 UTC
  • Clouds: Scattered at 762 meters; scattered at 1219 meters
  • Wind: 320 degrees at 5
  • From day 1 of the month at 16:00 UTC
  • Clouds: Scattered at 914 meters
  • Wind: Variable at 5
  • From day 1 of the month at 19:00 UTC
  • Clouds: A few at 914 meters
  • Wind: 70 degrees at 8
  • From day 2 of the month at 00:00 UTC
  • Clouds: No significant changes expected
  • Wind: Variable at 4